createdAt,value
2022-07-30T00:00:00.259Z,97788.69
2022-07-30T00:03:02.440Z,97794.47
2022-07-30T00:06:04.491Z,97787.16
2022-07-30T00:09:06.302Z,97793.75
2022-07-30T00:12:08.550Z,97794.63
2022-07-30T00:15:10.784Z,97791.06
2022-07-30T00:18:13.531Z,97777.47
2022-07-30T00:21:20.305Z,97779.50
2022-07-30T00:24:37.139Z,97770.75
2022-07-30T00:27:40.107Z,97778.16
2022-07-30T00:30:42.129Z,97771.78
2022-07-30T00:33:44.463Z,97777.19
2022-07-30T00:36:46.526Z,97768.00
2022-07-30T00:39:48.374Z,97771.34
2022-07-30T00:42:50.410Z,97771.22
2022-07-30T00:45:52.510Z,97770.59
2022-07-30T00:48:54.731Z,97765.13
2022-07-30T00:51:57.083Z,97762.91
2022-07-30T00:55:00.085Z,97762.16
2022-07-30T00:58:02.902Z,97754.63
2022-07-30T01:01:05.912Z,97752.16
2022-07-30T01:04:11.999Z,97754.63
2022-07-30T01:07:13.822Z,97751.47
2022-07-30T01:10:16.455Z,97745.78
2022-07-30T01:13:18.564Z,97734.44
2022-07-30T01:16:21.022Z,97729.69
2022-07-30T01:19:47.575Z,97736.13
2022-07-30T01:23:05.547Z,97741.50
2022-07-30T01:26:09.671Z,97745.91
2022-07-30T01:29:13.678Z,97743.19
2022-07-30T01:32:17.156Z,97741.94
2022-07-30T01:35:21.082Z,97738.69
2022-07-30T01:38:24.758Z,97733.72
2022-07-30T01:41:27.267Z,97742.53
2022-07-30T01:44:29.450Z,97743.59
2022-07-30T01:47:31.468Z,97733.13
2022-07-30T01:50:34.902Z,97732.75
2022-07-30T01:53:38.246Z,97736.66
2022-07-30T01:56:41.784Z,97736.72
2022-07-30T01:59:46.311Z,97735.53
2022-07-30T02:02:48.405Z,97732.13
2022-07-30T02:05:55.105Z,97735.28
2022-07-30T02:08:59.971Z,97743.72
2022-07-30T02:12:25.496Z,97746.94
2022-07-30T02:16:04.027Z,97747.84
2022-07-30T02:19:14.041Z,97744.53
2022-07-30T02:22:18.442Z,97737.41
2022-07-30T02:25:21.866Z,97728.84
2022-07-30T02:28:25.393Z,97729.88
2022-07-30T02:31:28.571Z,97731.78
2022-07-30T02:34:33.878Z,97726.50
2022-07-30T02:37:43.276Z,97733.66
2022-07-30T02:40:46.599Z,97730.19
2022-07-30T02:43:50.197Z,97723.78
2022-07-30T02:46:54.717Z,97725.84
2022-07-30T02:50:08.199Z,97725.50
2022-07-30T02:53:12.221Z,97729.97
2022-07-30T02:56:18.994Z,97732.03
2022-07-30T02:59:22.443Z,97729.28
2022-07-30T03:02:29.038Z,97728.88
2022-07-30T03:05:32.403Z,97719.50
2022-07-30T03:08:35.591Z,97721.53
2022-07-30T03:11:41.670Z,97729.31
2022-07-30T03:14:43.631Z,97739.13
2022-07-30T03:17:50.438Z,97735.63
2022-07-30T03:20:55.575Z,97739.75
2022-07-30T03:24:03.542Z,97738.50
2022-07-30T03:27:07.279Z,97737.47
2022-07-30T03:30:10.559Z,97727.88
2022-07-30T03:33:13.220Z,97735.63
2022-07-30T03:36:18.155Z,97738.69
2022-07-30T03:39:21.001Z,97742.38
2022-07-30T03:42:23.668Z,97738.28
2022-07-30T03:45:25.810Z,97743.97
2022-07-30T03:48:34.825Z,97742.97
2022-07-30T03:51:37.701Z,97739.50
2022-07-30T03:54:40.460Z,97741.34
2022-07-30T03:58:07.813Z,97737.28
2022-07-30T04:01:11.217Z,97731.94
2022-07-30T04:04:13.412Z,97728.88
2022-07-30T04:07:16.815Z,97728.88
2022-07-30T04:10:19.233Z,97739.91
2022-07-30T04:13:43.657Z,97730.47
2022-07-30T04:17:04.397Z,97738.38
2022-07-30T04:20:11.264Z,97747.25
2022-07-30T04:23:18.033Z,97739.50
2022-07-30T04:26:20.994Z,97743.47
2022-07-30T04:29:25.276Z,97747.91
2022-07-30T04:32:29.376Z,97745.50
2022-07-30T04:35:51.609Z,97750.50
2022-07-30T04:39:11.826Z,97741.78
2022-07-30T04:42:13.929Z,97734.94
2022-07-30T04:45:20.689Z,97741.03
2022-07-30T04:48:29.376Z,97744.03
2022-07-30T04:51:43.081Z,97751.84
2022-07-30T04:54:50.381Z,97755.84
2022-07-30T04:57:53.477Z,97755.81
2022-07-30T05:00:56.983Z,97759.16
2022-07-30T05:04:06.925Z,97755.63
2022-07-30T05:07:14.686Z,97758.28
2022-07-30T05:10:19.599Z,97758.47
2022-07-30T05:13:22.275Z,97759.69
2022-07-30T05:16:25.126Z,97747.97
2022-07-30T05:19:30.719Z,97751.09
2022-07-30T05:22:33.048Z,97756.44
2022-07-30T05:25:35.885Z,97756.56
2022-07-30T05:28:57.005Z,97768.44
2022-07-30T05:32:20.269Z,97771.13
2022-07-30T05:35:24.801Z,97773.13
2022-07-30T05:38:36.053Z,97773.13
2022-07-30T05:41:58.222Z,97771.75
2022-07-30T05:45:02.956Z,97775.66
2022-07-30T05:48:05.773Z,97774.78
2022-07-30T05:51:07.783Z,97769.44
2022-07-30T05:54:10.040Z,97770.81
2022-07-30T05:57:44.143Z,97775.22
2022-07-30T06:00:46.179Z,97768.66
2022-07-30T06:03:48.711Z,97762.06
2022-07-30T06:07:16.723Z,97757.53
2022-07-30T06:10:19.034Z,97766.19
2022-07-30T06:13:22.385Z,97765.38
2022-07-30T06:16:24.351Z,97771.44
2022-07-30T06:19:26.857Z,97775.13
2022-07-30T06:22:28.955Z,97775.38
2022-07-30T06:25:33.927Z,97773.16
2022-07-30T06:28:38.104Z,97784.34
2022-07-30T06:31:48.567Z,97785.38
2022-07-30T06:35:07.150Z,97779.91
2022-07-30T06:38:09.193Z,97783.00
2022-07-30T06:41:28.521Z,97783.69
2022-07-30T06:44:33.633Z,97776.03
2022-07-30T06:47:39.813Z,97781.75
2022-07-30T06:50:41.947Z,97788.94
2022-07-30T06:53:46.050Z,97781.38
2022-07-30T06:56:48.046Z,97785.31
2022-07-30T06:59:56.139Z,97783.06
2022-07-30T07:03:12.101Z,97783.19
2022-07-30T07:06:14.265Z,97792.81
2022-07-30T07:09:17.550Z,97799.44
2022-07-30T07:12:25.998Z,97801.59
2022-07-30T07:15:32.842Z,97799.47
2022-07-30T07:18:40.950Z,97798.63
2022-07-30T07:21:42.924Z,97799.47
2022-07-30T07:24:44.953Z,97806.44
2022-07-30T07:28:12.626Z,97803.34
2022-07-30T07:32:06.081Z,97810.34
2022-07-30T07:34:35.562Z,97803.53
2022-07-30T07:37:37.649Z,97809.16
2022-07-30T07:40:41.547Z,97798.63
2022-07-30T07:43:44.146Z,97806.13
2022-07-30T07:47:04.180Z,97811.91
2022-07-30T07:50:10.734Z,97801.38
2022-07-30T07:53:19.153Z,97799.53
2022-07-30T07:56:22.421Z,97797.72
2022-07-30T07:59:27.759Z,97795.66
2022-07-30T08:02:46.679Z,97795.88
2022-07-30T08:06:01.224Z,97789.13
2022-07-30T08:09:40.589Z,97783.72
2022-07-30T08:12:53.563Z,97785.78
2022-07-30T08:16:12.650Z,97789.25
2022-07-30T08:19:33.464Z,97800.38
2022-07-30T08:22:46.970Z,97798.06
2022-07-30T08:25:50.817Z,97808.94
2022-07-30T08:28:54.554Z,97801.19
2022-07-30T08:31:57.348Z,97804.47
2022-07-30T08:35:02.506Z,97798.31
2022-07-30T08:38:05.697Z,97796.66
2022-07-30T08:41:11.220Z,97807.59
2022-07-30T08:44:13.549Z,97803.59
2022-07-30T08:47:18.762Z,97800.69
2022-07-30T08:50:44.985Z,97800.72
2022-07-30T08:54:07.248Z,97800.78
2022-07-30T08:57:10.343Z,97803.75
2022-07-30T09:00:14.442Z,97801.59
2022-07-30T09:03:16.831Z,97803.75
2022-07-30T09:06:19.564Z,97806.56
2022-07-30T09:09:21.567Z,97803.94
2022-07-30T09:12:46.364Z,97803.38
2022-07-30T09:15:48.759Z,97807.75
2022-07-30T09:18:52.297Z,97804.47
2022-07-30T09:22:02.074Z,97799.78
2022-07-30T09:25:33.550Z,97795.47
2022-07-30T09:28:53.905Z,97801.91
2022-07-30T09:32:52.878Z,97799.59
2022-07-30T09:36:16.187Z,97805.34
2022-07-30T09:39:38.941Z,97807.31
2022-07-30T09:43:08.837Z,97803.03
2022-07-30T09:46:12.845Z,97795.94
2022-07-30T09:49:17.261Z,97793.88
2022-07-30T09:52:29.601Z,97793.72
2022-07-30T09:55:36.127Z,97791.22
2022-07-30T09:58:45.575Z,97787.97
2022-07-30T10:01:55.000Z,97787.72
2022-07-30T10:05:29.285Z,97792.94
2022-07-30T10:08:40.606Z,97791.75
2022-07-30T10:11:43.056Z,97795.81
2022-07-30T10:14:47.221Z,97795.81
2022-07-30T10:17:52.612Z,97796.84
2022-07-30T10:21:05.348Z,97789.44
2022-07-30T10:24:27.661Z,97790.25
2022-07-30T10:27:48.941Z,97797.03
2022-07-30T10:31:08.205Z,97791.41
2022-07-30T10:34:26.200Z,97785.88
2022-07-30T10:37:32.262Z,97781.50
2022-07-30T10:40:39.616Z,97795.06
2022-07-30T10:43:50.031Z,97793.38
2022-07-30T10:47:06.924Z,97791.25
2022-07-30T10:50:15.754Z,97779.78
2022-07-30T10:53:42.117Z,97779.25
2022-07-30T10:57:05.115Z,97787.88
2022-07-30T11:00:07.691Z,97779.50
2022-07-30T11:03:14.849Z,97771.88
2022-07-30T11:06:24.728Z,97771.66
2022-07-30T11:09:41.761Z,97768.56
2022-07-30T11:12:52.858Z,97759.97
2022-07-30T11:15:56.299Z,97765.75
2022-07-30T11:19:55.047Z,97762.06
2022-07-30T11:22:44.868Z,97759.09
2022-07-30T11:25:50.081Z,97760.56
2022-07-30T11:28:53.523Z,97758.63
2022-07-30T11:32:00.114Z,97754.19
2022-07-30T11:35:25.877Z,97760.91
2022-07-30T11:38:55.336Z,97760.91
2022-07-30T11:42:25.962Z,97763.56
2022-07-30T11:45:30.151Z,97769.13
2022-07-30T11:48:33.005Z,97762.59
2022-07-30T11:51:43.234Z,97764.31
2022-07-30T11:54:55.949Z,97761.28
2022-07-30T11:57:59.677Z,97764.44
2022-07-30T12:01:14.293Z,97755.50
2022-07-30T12:04:16.491Z,97756.75
2022-07-30T12:07:23.729Z,97757.84
2022-07-30T12:10:27.118Z,97753.41
2022-07-30T12:13:44.095Z,97756.06
2022-07-30T12:16:55.471Z,97767.47
2022-07-30T12:19:57.882Z,97757.94
2022-07-30T12:23:00.409Z,97753.25
2022-07-30T12:26:04.502Z,97753.41
2022-07-30T12:29:13.386Z,97750.88
2022-07-30T12:32:23.502Z,97751.41
2022-07-30T12:35:45.431Z,97750.75
2022-07-30T12:38:50.930Z,97747.25
2022-07-30T12:41:56.696Z,97741.84
2022-07-30T12:45:01.005Z,97733.06
2022-07-30T12:48:12.631Z,97732.81
2022-07-30T12:51:15.473Z,97726.59
2022-07-30T12:54:19.730Z,97719.16
2022-07-30T12:57:24.825Z,97711.97
2022-07-30T13:00:52.541Z,97711.94
2022-07-30T13:03:55.974Z,97711.19
2022-07-30T13:07:11.935Z,97715.97
2022-07-30T13:10:22.789Z,97707.72
2022-07-30T13:13:31.867Z,97708.41
2022-07-30T13:16:36.453Z,97709.00
2022-07-30T13:19:40.851Z,97691.59
2022-07-30T13:22:43.512Z,97693.31
2022-07-30T13:25:47.327Z,97685.00
2022-07-30T13:28:49.841Z,97694.25
2022-07-30T13:31:52.984Z,97694.50
2022-07-30T13:34:59.779Z,97682.44
2022-07-30T13:38:03.653Z,97685.69
2022-07-30T13:41:06.307Z,97685.06
2022-07-30T13:44:08.529Z,97675.63
2022-07-30T13:47:13.695Z,97675.16
2022-07-30T13:50:16.555Z,97670.66
2022-07-30T13:53:21.798Z,97672.91
2022-07-30T13:56:26.172Z,97670.16
2022-07-30T13:59:30.247Z,97671.66
2022-07-30T14:02:32.161Z,97672.72
2022-07-30T14:05:42.238Z,97664.50
2022-07-30T14:08:48.140Z,97670.81
2022-07-30T14:11:50.237Z,97673.03
2022-07-30T14:14:52.461Z,97665.63
2022-07-30T14:17:56.376Z,97663.47
2022-07-30T14:20:58.675Z,97662.50
2022-07-30T14:24:00.703Z,97653.94
2022-07-30T14:27:02.954Z,97655.91
2022-07-30T14:30:08.083Z,97661.81
2022-07-30T14:33:11.211Z,97672.25
2022-07-30T14:36:13.368Z,97659.44
2022-07-30T14:39:15.181Z,97661.47
2022-07-30T14:42:17.312Z,97655.81
2022-07-30T14:45:19.359Z,97661.16
2022-07-30T14:48:21.362Z,97656.78
2022-07-30T14:51:26.788Z,97652.38
2022-07-30T14:54:31.740Z,97653.97
2022-07-30T14:57:37.050Z,97662.16
2022-07-30T15:00:48.531Z,97658.44
2022-07-30T15:03:51.092Z,97665.72
2022-07-30T15:06:54.328Z,97667.69
2022-07-30T15:09:56.904Z,97658.19
2022-07-30T15:12:58.934Z,97660.16
2022-07-30T15:16:01.023Z,97656.47
2022-07-30T15:19:02.988Z,97650.81
2022-07-30T15:22:05.699Z,97640.22
2022-07-30T15:25:08.635Z,97635.81
2022-07-30T15:28:10.665Z,97631.66
2022-07-30T15:31:13.312Z,97628.41
2022-07-30T15:34:15.444Z,97633.84
2022-07-30T15:37:17.624Z,97622.38
2022-07-30T15:40:19.780Z,97619.88
2022-07-30T15:43:22.111Z,97616.13
2022-07-30T15:46:24.274Z,97618.31
2022-07-30T15:49:26.564Z,97612.25
2022-07-30T15:52:28.952Z,97610.97
2022-07-30T15:55:31.125Z,97610.91
2022-07-30T15:58:49.268Z,97611.00
2022-07-30T16:01:51.513Z,97598.03
2022-07-30T16:04:53.979Z,97595.69
2022-07-30T16:07:56.047Z,97603.16
2022-07-30T16:10:58.746Z,97611.75
2022-07-30T16:14:02.011Z,97609.63
2022-07-30T16:17:04.332Z,97609.66
2022-07-30T16:20:06.835Z,97616.63
2022-07-30T16:23:13.951Z,97634.53
2022-07-30T16:26:19.372Z,97630.44
2022-07-30T16:29:21.495Z,97634.66
2022-07-30T16:32:24.247Z,97639.41
2022-07-30T16:35:26.355Z,97644.53
2022-07-30T16:38:28.629Z,97662.38
2022-07-30T16:41:30.802Z,97667.38
2022-07-30T16:44:34.310Z,97669.19
2022-07-30T16:47:36.519Z,97669.88
2022-07-30T16:50:41.042Z,97673.81
2022-07-30T16:53:43.317Z,97668.53
2022-07-30T16:56:45.660Z,97674.03
2022-07-30T16:59:47.607Z,97680.97
2022-07-30T17:02:49.689Z,97692.31
2022-07-30T17:05:52.403Z,97693.19
2022-07-30T17:08:54.408Z,97692.66
2022-07-30T17:11:56.476Z,97691.19
2022-07-30T17:15:02.722Z,97703.25
2022-07-30T17:18:05.287Z,97708.84
2022-07-30T17:21:07.292Z,97705.31
2022-07-30T17:24:13.855Z,97698.84
2022-07-30T17:27:15.766Z,97694.84
2022-07-30T17:30:18.683Z,97688.53
2022-07-30T17:33:20.935Z,97690.91
2022-07-30T17:36:23.110Z,97687.56
2022-07-30T17:40:24.792Z,97689.28
2022-07-30T17:42:47.756Z,97685.53
2022-07-30T17:45:50.299Z,97688.91
2022-07-30T17:48:52.472Z,97689.28
2022-07-30T17:51:54.657Z,97688.78
2022-07-30T17:54:57.479Z,97696.38
2022-07-30T17:57:59.602Z,97704.81
2022-07-30T18:01:03.121Z,97687.22
2022-07-30T18:04:05.448Z,97686.09
2022-07-30T18:07:07.602Z,97673.41
2022-07-30T18:10:10.407Z,97678.44
2022-07-30T18:13:26.855Z,97674.34
2022-07-30T18:16:37.158Z,97667.53
2022-07-30T18:19:40.874Z,97669.00
2022-07-30T18:22:45.580Z,97657.78
2022-07-30T18:25:51.362Z,97653.94
2022-07-30T18:28:55.682Z,97654.22
2022-07-30T18:31:57.847Z,97650.94
2022-07-30T18:35:00.105Z,97648.28
2022-07-30T18:38:03.106Z,97652.44
2022-07-30T18:41:08.125Z,97643.44
2022-07-30T18:44:10.372Z,97647.78
2022-07-30T18:47:12.592Z,97641.84
2022-07-30T18:50:16.253Z,97654.03
2022-07-30T18:53:18.578Z,97657.53
2022-07-30T18:56:22.301Z,97664.84
2022-07-30T18:59:24.495Z,97663.78
2022-07-30T19:02:26.759Z,97656.50
2022-07-30T19:05:29.785Z,97670.00
2022-07-30T19:08:35.121Z,97661.41
2022-07-30T19:11:37.276Z,97671.22
2022-07-30T19:14:39.912Z,97671.59
2022-07-30T19:17:46.010Z,97670.81
2022-07-30T19:20:50.879Z,97670.78
2022-07-30T19:23:52.933Z,97672.84
2022-07-30T19:26:57.082Z,97662.19
2022-07-30T19:29:59.473Z,97670.78
2022-07-30T19:33:14.786Z,97676.31
2022-07-30T19:36:20.914Z,97670.97
2022-07-30T19:39:22.933Z,97681.38
2022-07-30T19:42:28.917Z,97671.13
2022-07-30T19:45:47.281Z,97669.09
2022-07-30T19:48:50.660Z,97675.25
2022-07-30T19:52:10.282Z,97678.50
2022-07-30T19:55:17.156Z,97677.69
2022-07-30T19:58:33.350Z,97673.03
2022-07-30T20:01:41.108Z,97678.16
2022-07-30T20:04:43.622Z,97676.91
2022-07-30T20:07:47.342Z,97672.97
2022-07-30T20:10:51.441Z,97675.59
2022-07-30T20:13:53.424Z,97666.38
2022-07-30T20:16:58.142Z,97673.41
2022-07-30T20:20:06.458Z,97669.53
2022-07-30T20:23:09.372Z,97671.56
2022-07-30T20:26:14.950Z,97669.50
2022-07-30T20:29:19.414Z,97674.03
2022-07-30T20:32:23.751Z,97673.78
2022-07-30T20:35:26.830Z,97673.13
2022-07-30T20:38:29.785Z,97671.28
2022-07-30T20:41:32.221Z,97674.41
2022-07-30T20:44:40.094Z,97674.25
2022-07-30T20:47:47.033Z,97666.69
2022-07-30T20:50:50.096Z,97665.91
2022-07-30T20:53:52.565Z,97668.06
2022-07-30T20:56:55.007Z,97667.09
2022-07-30T20:59:57.221Z,97670.53
2022-07-30T21:03:03.061Z,97673.03
2022-07-30T21:06:07.011Z,97667.69
2022-07-30T21:09:09.011Z,97666.19
2022-07-30T21:12:14.646Z,97672.41
2022-07-30T21:15:23.921Z,97678.16
2022-07-30T21:18:29.168Z,97674.47
2022-07-30T21:21:41.813Z,97666.47
2022-07-30T21:24:50.164Z,97658.97
2022-07-30T21:27:52.158Z,97663.28
2022-07-30T21:30:57.154Z,97670.03
2022-07-30T21:33:59.638Z,97675.16
2022-07-30T21:37:02.289Z,97672.53
2022-07-30T21:40:06.135Z,97671.88
2022-07-30T21:43:08.206Z,97670.47
2022-07-30T21:46:11.314Z,97669.66
2022-07-30T21:49:13.298Z,97673.94
2022-07-30T21:52:15.578Z,97677.63
2022-07-30T21:55:17.895Z,97674.38
2022-07-30T21:58:24.079Z,97669.94
2022-07-30T22:01:29.671Z,97676.47
2022-07-30T22:04:37.813Z,97674.63
2022-07-30T22:07:39.740Z,97668.25
2022-07-30T22:10:44.547Z,97669.28
2022-07-30T22:13:51.417Z,97671.75
2022-07-30T22:16:57.473Z,97670.94
2022-07-30T22:19:59.623Z,97671.34
2022-07-30T22:23:03.167Z,97661.13
2022-07-30T22:26:06.613Z,97659.53
2022-07-30T22:29:08.673Z,97659.09
2022-07-30T22:32:14.224Z,97662.56
2022-07-30T22:35:17.109Z,97651.94
2022-07-30T22:38:23.089Z,97649.06
2022-07-30T22:41:24.993Z,97646.00
2022-07-30T22:44:27.322Z,97653.38
2022-07-30T22:47:53.879Z,97656.00
2022-07-30T22:50:53.247Z,97638.66
2022-07-30T22:54:03.000Z,97642.75
2022-07-30T22:57:17.779Z,97640.28
2022-07-30T23:00:27.895Z,97641.47
2022-07-30T23:03:32.826Z,97641.47
2022-07-30T23:06:36.663Z,97634.16
2022-07-30T23:09:51.793Z,97635.34
2022-07-30T23:12:54.287Z,97630.44
2022-07-30T23:15:56.437Z,97622.69
2022-07-30T23:19:00.664Z,97626.75
2022-07-30T23:22:02.472Z,97628.00
2022-07-30T23:25:08.575Z,97625.13
2022-07-30T23:28:10.697Z,97621.25
2022-07-30T23:31:12.687Z,97622.06
2022-07-30T23:34:14.513Z,97614.50
2022-07-30T23:37:16.451Z,97624.09
2022-07-30T23:40:18.881Z,97628.78
2022-07-30T23:43:20.943Z,97622.25
2022-07-30T23:46:22.966Z,97624.25
2022-07-30T23:49:24.890Z,97620.97
2022-07-30T23:52:26.760Z,97616.88
2022-07-30T23:55:29.762Z,97617.72
2022-07-30T23:58:31.560Z,97618.97
